Time;durP1;ratioP1;P1;durP2;ratioP2;P2;SDS_P1;SDS_P2;PMS_P1;PMS_P2;Temp;Humidity;BMP_temperature;BMP_pressure;BME280_temperature;BME280_humidity;BME280_pressure;Samples;Min_cycle;Max_cycle;Signal;HPM_P1;HPM_P2
2022/12/20 00:01:47;;;;;;;58.42;17.48;;;-1.70;99.90;;;;;;6157448;23;20024;-78
2022/12/20 00:04:14;;;;;;;41.95;15.13;;;-1.80;99.90;;;;;;6133514;23;20048;-78
2022/12/20 00:06:41;;;;;;;54.22;19.02;;;-1.80;99.90;;;;;;6159529;23;20028;-78
2022/12/20 00:09:10;;;;;;;51.45;15.20;;;-1.80;99.90;;;;;;6133538;23;20238;-78
2022/12/20 00:11:39;;;;;;;54.58;18.08;;;-1.80;99.90;;;;;;6157805;23;20055;-78
2022/12/20 00:14:08;;;;;;;53.22;14.73;;;-1.80;99.90;;;;;;6157990;23;20112;-78
2022/12/20 00:16:36;;;;;;;56.05;18.08;;;-1.80;99.90;;;;;;6159254;23;20021;-79
2022/12/20 00:19:05;;;;;;;48.38;17.40;;;-1.80;99.90;;;;;;6133497;23;20017;-78
2022/12/20 00:21:33;;;;;;;46.97;14.25;;;-1.70;99.90;;;;;;6157739;23;20511;-78
2022/12/20 00:24:02;;;;;;;55.42;18.73;;;-1.80;99.90;;;;;;6132502;23;20021;-79
2022/12/20 00:26:31;;;;;;;48.47;16.75;;;-1.70;99.90;;;;;;6158479;23;20017;-78
2022/12/20 00:28:59;;;;;;;50.20;18.13;;;-1.70;99.90;;;;;;6183111;23;20025;-77
2022/12/20 00:31:29;;;;;;;61.10;19.70;;;-1.70;99.90;;;;;;6133300;23;20021;-78
2022/12/20 00:33:57;;;;;;;53.13;18.20;;;-1.70;99.90;;;;;;6159227;23;20028;-78
2022/12/20 00:36:26;;;;;;;49.92;17.80;;;-1.70;99.90;;;;;;6159345;23;20495;-78
2022/12/20 00:38:55;;;;;;;55.92;18.33;;;-1.70;99.90;;;;;;6157110;23;20021;-78
2022/12/20 00:41:28;;;;;;;53.38;16.30;;;-1.60;99.90;;;;;;6183170;23;20021;-78
2022/12/20 00:43:56;;;;;;;49.92;16.30;;;-1.60;99.90;;;;;;6132936;23;20371;-78
2022/12/20 00:46:24;;;;;;;54.25;15.77;;;-1.60;99.90;;;;;;6158515;23;20025;-78
2022/12/20 00:48:53;;;;;;;44.65;14.90;;;-1.60;99.90;;;;;;6132561;23;20833;-79
2022/12/20 00:51:23;;;;;;;43.58;15.63;;;-1.60;99.90;;;;;;6158913;23;20100;-78
2022/12/20 00:53:51;;;;;;;59.13;19.45;;;-1.50;99.90;;;;;;6133413;23;20044;-78
2022/12/20 00:56:19;;;;;;;46.80;14.40;;;-1.60;99.90;;;;;;6158477;23;20021;-79
2022/12/20 00:58:47;;;;;;;40.65;14.98;;;-1.60;99.90;;;;;;6133972;23;20024;-78
2022/12/20 01:01:25;;;;;;;45.15;14.02;;;-1.60;99.90;;;;;;6157332;23;20021;-78
2022/12/20 01:03:53;;;;;;;60.35;16.73;;;-1.60;99.90;;;;;;6159953;23;20016;-79
2022/12/20 01:06:22;;;;;;;51.55;14.90;;;-1.60;99.90;;;;;;6134389;23;20055;-78
2022/12/20 01:08:50;;;;;;;29.45;12.18;;;-1.60;99.90;;;;;;6158360;23;20060;-78
2022/12/20 01:11:20;;;;;;;60.60;19.23;;;-1.60;99.90;;;;;;6132241;23;20032;-78
2022/12/20 01:13:50;;;;;;;45.83;15.55;;;-1.50;99.90;;;;;;6133068;23;20025;-78
2022/12/20 01:16:20;;;;;;;61.72;20.42;;;-1.60;99.90;;;;;;6133415;23;20025;-78
2022/12/20 01:18:49;;;;;;;58.78;18.92;;;-1.60;99.90;;;;;;6158832;23;20099;-79
2022/12/20 01:21:17;;;;;;;50.67;16.45;;;-1.60;99.90;;;;;;6132959;23;20017;-78
2022/12/20 01:23:45;;;;;;;44.97;15.45;;;-1.50;99.90;;;;;;6134203;23;20016;-78
2022/12/20 01:26:15;;;;;;;49.78;16.60;;;-1.60;99.90;;;;;;6157862;23;20017;-78
2022/12/20 01:28:45;;;;;;;55.45;18.08;;;-1.60;99.90;;;;;;6132841;23;20079;-77
2022/12/20 01:31:15;;;;;;;35.17;11.43;;;-1.60;99.90;;;;;;6157447;23;20766;-78
2022/12/20 01:33:43;;;;;;;58.40;17.10;;;-1.50;99.90;;;;;;6134941;23;20024;-77
2022/12/20 01:36:14;;;;;;;51.42;15.88;;;-1.50;99.90;;;;;;6132005;23;20049;-78
2022/12/20 01:38:42;;;;;;;48.58;15.27;;;-1.50;99.90;;;;;;6157205;23;20013;-78
2022/12/20 01:41:18;;;;;;;46.83;15.95;;;-1.50;99.90;;;;;;6157429;23;20437;-78
2022/12/20 01:43:55;;;;;;;53.83;18.17;;;-1.50;99.90;;;;;;6158349;23;20071;-78
2022/12/20 01:46:25;;;;;;;48.65;16.63;;;-1.50;99.90;;;;;;6157931;23;20801;-77
2022/12/20 01:49:05;;;;;;;47.08;16.30;;;-1.50;99.90;;;;;;6157384;23;20048;-78
2022/12/20 01:51:35;;;;;;;50.92;17.05;;;-1.50;99.90;;;;;;6133244;23;20095;-78
2022/12/20 01:54:25;;;;;;;45.25;15.77;;;-1.50;99.90;;;;;;6134408;23;20197;-78
2022/12/20 01:57:00;;;;;;;51.03;14.73;;;-1.50;99.90;;;;;;6101662;23;20100;-78
2022/12/20 01:59:28;;;;;;;36.25;10.10;;;-1.50;99.90;;;;;;6132565;23;20021;-77
2022/12/20 02:02:02;;;;;;;47.70;15.13;;;-1.60;99.90;;;;;;6157200;23;20027;-78
2022/12/20 02:04:30;;;;;;;29.02;12.10;;;-1.60;99.90;;;;;;6160217;23;20141;-78
2022/12/20 02:06:59;;;;;;;47.55;16.17;;;-1.60;99.90;;;;;;6135290;23;20028;-78
2022/12/20 02:09:26;;;;;;;43.38;15.68;;;-1.50;99.90;;;;;;6185189;23;20013;-78
2022/12/20 02:12:31;;;;;;;36.80;11.30;;;-1.50;99.90;;;;;;6158758;23;20360;-78
2022/12/20 02:15:22;;;;;;;24.60;8.10;;;-1.50;99.90;;;;;;6093038;23;20024;-77
2022/12/20 02:17:55;;;;;;;42.17;11.15;;;-1.50;99.90;;;;;;6160277;23;20025;-78
2022/12/20 02:20:58;;;;;;;36.20;12.25;;;-1.50;99.90;;;;;;6133752;23;20096;-78
2022/12/20 02:23:54;;;;;;;41.50;13.90;;;-1.50;99.90;;;;;;6154355;23;20017;-79
2022/12/20 02:26:46;;;;;;;34.50;10.85;;;-1.50;99.90;;;;;;6129709;23;20028;-78
2022/12/20 02:29:50;;;;;;;43.28;14.88;;;-1.50;99.90;;;;;;6153987;23;20292;-78
2022/12/20 02:32:41;;;;;;;52.45;17.27;;;-1.50;99.90;;;;;;6132286;23;20490;-78
2022/12/20 02:35:11;;;;;;;45.60;15.70;;;-1.50;99.90;;;;;;6159041;23;20032;-78
2022/12/20 02:37:47;;;;;;;20.25;7.57;;;-1.50;99.90;;;;;;6158450;23;20032;-78
2022/12/20 02:40:20;;;;;;;31.83;12.85;;;-1.40;99.90;;;;;;6157792;23;20048;-78
2022/12/20 02:42:50;;;;;;;43.78;14.68;;;-1.50;99.90;;;;;;6133469;23;20099;-78
2022/12/20 02:45:20;;;;;;;43.95;14.40;;;-1.40;99.90;;;;;;6152720;23;20031;-78
2022/12/20 02:48:25;;;;;;;36.70;13.95;;;-1.50;99.90;;;;;;6153931;23;20021;-78
2022/12/20 02:50:55;;;;;;;50.88;15.40;;;-1.50;99.90;;;;;;6064752;23;20119;-78
2022/12/20 02:53:22;;;;;;;49.00;15.10;;;-1.50;99.90;;;;;;6135075;23;20021;-78
2022/12/20 02:56:20;;;;;;;48.53;15.93;;;-1.40;99.90;;;;;;6152592;23;20076;-78
2022/12/20 02:58:57;;;;;;;48.97;16.55;;;-1.50;99.90;;;;;;6152462;23;20389;-78
2022/12/20 03:01:32;;;;;;;52.63;15.30;;;-1.50;99.90;;;;;;6154479;23;20025;-78
2022/12/20 03:04:00;;;;;;;48.90;16.30;;;-1.50;99.90;;;;;;6129991;23;20025;-78
2022/12/20 03:06:29;;;;;;;47.78;16.33;;;-1.50;99.90;;;;;;6129008;23;20021;-78
2022/12/20 03:08:57;;;;;;;50.95;15.77;;;-1.50;99.90;;;;;;6153884;23;20053;-78
2022/12/20 03:11:27;;;;;;;48.58;16.63;;;-1.50;99.90;;;;;;6130535;23;20032;-78
2022/12/20 03:13:54;;;;;;;47.17;14.82;;;-1.50;99.90;;;;;;6151496;23;20382;-78
2022/12/20 03:16:21;;;;;;;44.13;14.90;;;-1.50;99.90;;;;;;6152214;23;20060;-78
2022/12/20 03:18:49;;;;;;;36.60;11.98;;;-1.50;99.90;;;;;;6127740;23;20021;-78
2022/12/20 03:21:16;;;;;;;45.70;13.23;;;-1.40;99.90;;;;;;6153353;23;20054;-78
2022/12/20 03:23:43;;;;;;;37.33;11.88;;;-1.40;99.90;;;;;;6151889;23;20071;-78
2022/12/20 03:26:10;;;;;;;28.80;10.43;;;-1.50;99.90;;;;;;6151586;23;20028;-77
2022/12/20 03:28:44;;;;;;;39.80;14.35;;;-1.40;99.90;;;;;;6153354;23;20021;-78
2022/12/20 03:31:16;;;;;;;43.20;13.97;;;-1.40;99.90;;;;;;6154823;23;20349;-78
2022/12/20 03:33:50;;;;;;;39.03;15.23;;;-1.40;99.90;;;;;;6131904;23;20290;-78
2022/12/20 03:36:22;;;;;;;42.92;14.38;;;-1.40;99.90;;;;;;6152354;23;20369;-78
2022/12/20 03:38:54;;;;;;;40.35;13.20;;;-1.40;99.90;;;;;;6154554;23;20194;-78
2022/12/20 03:41:24;;;;;;;35.53;13.13;;;-1.40;99.90;;;;;;6152749;23;20023;-78
2022/12/20 03:43:52;;;;;;;33.50;11.95;;;-1.40;99.90;;;;;;6156020;23;20018;-78
2022/12/20 03:46:20;;;;;;;41.10;13.38;;;-1.40;99.90;;;;;;6133566;23;20017;-78
2022/12/20 03:48:48;;;;;;;42.78;14.57;;;-1.40;99.90;;;;;;6157995;23;20528;-78
2022/12/20 03:51:15;;;;;;;38.42;13.23;;;-1.30;99.90;;;;;;6157456;23;20056;-78
2022/12/20 03:53:43;;;;;;;44.22;14.00;;;-1.30;99.90;;;;;;6158805;23;20024;-78
2022/12/20 03:56:12;;;;;;;37.70;13.25;;;-1.40;99.90;;;;;;6133552;23;20032;-78
2022/12/20 03:58:41;;;;;;;44.63;15.13;;;-1.30;99.90;;;;;;6157878;23;20353;-78
2022/12/20 04:01:23;;;;;;;37.20;13.45;;;-1.30;99.90;;;;;;6133266;23;20472;-78
2022/12/20 04:03:51;;;;;;;38.20;12.95;;;-1.30;99.90;;;;;;6157865;23;20017;-77
2022/12/20 04:06:19;;;;;;;43.15;13.52;;;-1.30;99.90;;;;;;6133169;23;20021;-77
2022/12/20 04:08:47;;;;;;;42.00;14.55;;;-1.30;99.90;;;;;;6156831;23;20076;-77
2022/12/20 04:11:22;;;;;;;36.90;12.25;;;-1.30;99.90;;;;;;6134631;23;20060;-78
2022/12/20 04:13:54;;;;;;;24.90;10.23;;;-1.30;99.90;;;;;;6135437;23;20586;-78
2022/12/20 04:16:24;;;;;;;35.65;10.80;;;-1.30;99.90;;;;;;6183767;23;20033;-78
2022/12/20 04:18:52;;;;;;;40.55;12.00;;;-1.40;99.90;;;;;;6133650;23;20096;-78
2022/12/20 04:21:28;;;;;;;42.03;14.23;;;-1.40;99.90;;;;;;6132777;23;20071;-78
2022/12/20 04:23:58;;;;;;;34.42;11.55;;;-1.40;99.90;;;;;;6158700;23;20021;-78
2022/12/20 04:26:35;;;;;;;39.35;12.60;;;-1.40;99.90;;;;;;6135474;23;20103;-78
2022/12/20 04:29:03;;;;;;;37.50;11.75;;;-1.40;99.90;;;;;;6157102;23;20025;-77
2022/12/20 04:31:30;;;;;;;46.97;13.55;;;-1.40;99.90;;;;;;6132546;23;20500;-78
2022/12/20 04:33:59;;;;;;;38.03;13.00;;;-1.40;99.90;;;;;;6134274;23;20024;-78
2022/12/20 04:36:26;;;;;;;34.58;11.20;;;-1.40;99.90;;;;;;6157090;23;20415;-78
2022/12/20 04:38:55;;;;;;;36.17;10.48;;;-1.40;99.90;;;;;;6133768;23;20036;-78
2022/12/20 04:41:22;;;;;;;38.53;11.55;;;-1.50;99.90;;;;;;6134083;23;20510;-78
2022/12/20 04:43:56;;;;;;;;;;;-1.50;99.90;;;;;;6159303;23;20021;-78
2022/12/20 04:46:30;;;;;;;34.70;11.88;;;-1.50;99.90;;;;;;6135152;23;20237;-78
2022/12/20 04:48:59;;;;;;;35.25;11.05;;;-1.50;99.90;;;;;;6132756;23;20052;-78
2022/12/20 04:51:29;;;;;;;36.95;12.02;;;-1.50;99.90;;;;;;6158179;23;20029;-78
2022/12/20 04:53:56;;;;;;;30.85;9.68;;;-1.40;99.90;;;;;;6157899;23;20352;-78
2022/12/20 04:56:34;;;;;;;39.10;11.45;;;-1.50;99.90;;;;;;6137849;23;20021;-78
2022/12/20 04:59:07;;;;;;;31.00;10.43;;;-1.50;99.90;;;;;;6134568;23;20108;-78
2022/12/20 05:01:35;;;;;;;33.25;11.55;;;-1.50;99.90;;;;;;6157689;23;20469;-78
2022/12/20 05:04:03;;;;;;;36.13;11.95;;;-1.50;99.90;;;;;;6158376;23;20064;-78
2022/12/20 05:06:35;;;;;;;;;;;-1.50;99.90;;;;;;6134025;23;20025;-77
2022/12/20 05:09:03;;;;;;;33.78;10.93;;;-1.50;99.90;;;;;;6133060;23;19924;-78
2022/12/20 05:11:31;;;;;;;33.17;11.90;;;-1.50;99.90;;;;;;6133205;23;20076;-78
2022/12/20 05:13:59;;;;;;;34.75;11.93;;;-1.40;99.90;;;;;;6134503;23;20032;-78
2022/12/20 05:16:27;;;;;;;40.83;11.70;;;-1.50;99.90;;;;;;6156799;23;20100;-78
2022/12/20 05:18:54;;;;;;;41.30;11.95;;;-1.50;99.90;;;;;;6133572;23;20103;-78
2022/12/20 05:27:14;;;;;;;36.58;11.95;;;-1.50;99.90;;;;;;6156610;23;20520;-78
2022/12/20 05:29:41;;;;;;;38.85;11.77;;;-1.40;99.90;;;;;;6132930;23;20029;-78
2022/12/20 05:32:09;;;;;;;35.65;11.32;;;-1.50;99.90;;;;;;6155879;23;20029;-78
2022/12/20 05:34:40;;;;;;;45.60;14.35;;;-1.50;99.90;;;;;;6158898;23;20016;-78
2022/12/20 05:37:07;;;;;;;31.58;10.27;;;-1.50;99.90;;;;;;6133689;23;20407;-78
2022/12/20 05:39:36;;;;;;;34.28;11.85;;;-1.50;99.90;;;;;;6133688;23;20017;-78
2022/12/20 05:42:09;;;;;;;;;;;-1.50;99.90;;;;;;6135448;23;20028;-78
2022/12/20 05:44:36;;;;;;;31.27;10.90;;;-1.50;99.90;;;;;;6135872;23;19925;-78
2022/12/20 05:47:04;;;;;;;37.30;11.40;;;-1.50;99.90;;;;;;6134784;23;20017;-78
2022/12/20 05:49:34;;;;;;;36.90;11.48;;;-1.50;99.90;;;;;;6157801;23;20021;-78
2022/12/20 05:52:03;;;;;;;38.75;11.30;;;-1.50;99.90;;;;;;6134284;23;20043;-78
2022/12/20 05:54:30;;;;;;;37.60;12.68;;;-1.50;99.90;;;;;;6158862;23;20021;-78
2022/12/20 05:57:18;;;;;;;42.03;13.82;;;-1.50;99.90;;;;;;6161886;23;20521;-78
2022/12/20 05:59:45;;;;;;;31.70;10.70;;;-1.50;99.90;;;;;;6135314;23;20021;-78
2022/12/20 06:02:15;;;;;;;31.58;10.70;;;-1.50;99.90;;;;;;6158189;23;20025;-78
2022/12/20 06:04:44;;;;;;;44.97;13.88;;;-1.50;99.90;;;;;;6134857;23;20048;-78
2022/12/20 06:07:23;;;;;;;40.53;12.43;;;-1.50;99.90;;;;;;6159488;23;20021;-78
2022/12/20 06:09:55;;;;;;;36.53;12.77;;;-1.50;99.90;;;;;;6157959;23;20021;-78
2022/12/20 06:12:28;;;;;;;34.28;12.73;;;-1.50;99.90;;;;;;6158850;23;20079;-78
2022/12/20 06:14:56;;;;;;;35.45;12.40;;;-1.50;99.90;;;;;;6161019;23;20055;-78
2022/12/20 06:17:23;;;;;;;36.25;13.90;;;-1.50;99.90;;;;;;6136347;23;20020;-78
2022/12/20 06:19:51;;;;;;;35.03;9.82;;;-1.40;99.90;;;;;;6134313;23;20048;-78
2022/12/20 06:22:18;;;;;;;30.85;11.35;;;-1.50;99.90;;;;;;6134162;23;20360;-78
2022/12/20 06:24:54;;;;;;;32.97;10.20;;;-1.50;99.90;;;;;;6137258;23;20104;-78
2022/12/20 06:27:25;;;;;;;32.28;10.88;;;-1.50;99.90;;;;;;6160726;23;20021;-78
2022/12/20 06:30:06;;;;;;;8.48;2.78;;;-1.50;99.90;;;;;;6157760;23;20017;-78
2022/12/20 06:32:44;;;;;;;32.67;11.30;;;-1.60;99.90;;;;;;6136012;23;20017;-78
2022/12/20 06:35:13;;;;;;;20.38;7.00;;;-1.60;99.90;;;;;;6184469;23;20255;-77
2022/12/20 06:37:41;;;;;;;32.63;11.63;;;-1.60;99.90;;;;;;6158222;23;20027;-78
2022/12/20 06:40:10;;;;;;;32.03;9.27;;;-1.60;99.90;;;;;;6132136;23;20021;-78
2022/12/20 06:42:38;;;;;;;25.25;8.10;;;-1.60;99.90;;;;;;6156565;23;20025;-78
2022/12/20 06:45:07;;;;;;;35.17;9.45;;;-1.60;99.90;;;;;;6158356;23;20021;-78
2022/12/20 06:47:35;;;;;;;27.92;8.98;;;-1.50;99.90;;;;;;6157696;23;20025;-78
2022/12/20 06:50:04;;;;;;;34.75;10.88;;;-1.60;99.90;;;;;;6157348;23;20033;-78
2022/12/20 06:52:32;;;;;;;35.47;11.55;;;-1.50;99.90;;;;;;6133108;23;20367;-78
2022/12/20 06:54:59;;;;;;;26.80;8.63;;;-1.50;99.90;;;;;;6134544;23;20029;-78
2022/12/20 06:57:28;;;;;;;15.35;6.32;;;-1.60;99.90;;;;;;6156235;23;20025;-78
2022/12/20 06:59:55;;;;;;;35.58;10.38;;;-1.50;99.90;;;;;;6132508;23;20050;-78
2022/12/20 07:02:25;;;;;;;38.38;12.05;;;-1.50;99.90;;;;;;6152156;23;20024;-79
2022/12/20 07:04:54;;;;;;;30.33;10.80;;;-1.50;99.90;;;;;;6158163;23;20012;-79
2022/12/20 07:07:22;;;;;;;27.65;9.90;;;-1.50;99.90;;;;;;6146687;23;20024;-79
2022/12/20 07:09:49;;;;;;;24.38;8.95;;;-1.50;99.90;;;;;;6146235;23;20025;-79
2022/12/20 07:12:25;;;;;;;31.25;11.00;;;-1.50;99.90;;;;;;6136752;23;20763;31
2022/12/20 07:14:54;;;;;;;40.17;14.25;;;-1.40;99.90;;;;;;6116442;23;20025;-80
2022/12/20 07:23:46;;;;;;;47.50;18.60;;;-1.40;99.90;;;;;;6197324;23;20025;-78
2022/12/20 07:26:50;;;;;;;42.63;16.15;;;-1.30;99.90;;;;;;6102298;23;20026;-79
2022/12/20 07:29:24;;;;;;;35.57;13.37;;;-1.50;99.90;;;;;;6084064;23;20021;31
2022/12/20 07:38:29;;;;;;;62.90;22.50;;;-1.20;99.90;;;;;;6167914;22;20126;31
2022/12/20 07:48:25;;;;;;;53.58;17.75;;;-1.10;99.90;;;;;;6166128;23;20040;31
2022/12/20 08:04:43;;;;;;;87.43;29.08;;;-0.90;99.90;;;;;;6135763;23;20206;31
2022/12/20 08:11:05;;;;;;;104.20;30.33;;;-0.70;99.90;;;;;;6134875;22;20055;31
2022/12/20 08:13:56;;;;;;;107.60;33.95;;;-0.70;99.90;;;;;;6067570;23;20118;31
2022/12/20 08:16:30;;;;;;;89.80;30.75;;;-0.70;99.90;;;;;;6105764;23;20026;-79
2022/12/20 08:19:17;;;;;;;99.70;34.78;;;-0.70;99.90;;;;;;6108853;23;20354;31
2022/12/20 08:22:09;;;;;;;53.78;19.40;;;-0.60;99.90;;;;;;6132646;23;19947;-80
2022/12/20 08:24:46;;;;;;;37.22;16.17;;;-0.60;99.90;;;;;;6098033;23;20013;-80
2022/12/20 08:27:24;;;;;;;48.70;16.52;;;-0.40;99.90;;;;;;6125860;23;20021;31
2022/12/20 08:29:54;;;;;;;16.63;8.25;;;-0.40;99.90;;;;;;6144133;23;20009;-79
2022/12/20 08:32:23;;;;;;;48.83;17.45;;;-0.40;99.90;;;;;;6142471;23;20025;-79
2022/12/20 08:34:54;;;;;;;29.17;11.10;;;-0.50;99.90;;;;;;6115969;23;20088;-79
2022/12/20 08:37:23;;;;;;;30.15;10.80;;;-0.60;99.90;;;;;;6146162;23;20339;-79
2022/12/20 08:39:54;;;;;;;30.98;12.68;;;-0.60;99.90;;;;;;6134230;23;20005;-79
2022/12/20 08:45:53;;;;;;;52.75;17.73;;;-0.40;99.90;;;;;;6165935;23;20021;-79
2022/12/20 08:58:12;;;;;;;21.90;8.05;;;-0.40;99.90;;;;;;6149913;23;20036;-79
2022/12/20 09:10:45;;;;;;;14.10;6.75;;;0.10;99.90;;;;;;6137606;23;20013;-79
2022/12/20 09:13:13;;;;;;;31.52;9.20;;;0.10;99.90;;;;;;6152716;23;20036;-80
2022/12/20 09:15:58;;;;;;;22.05;6.22;;;0.20;99.90;;;;;;6131212;23;20992;-84
2022/12/20 09:39:13;;;;;;;29.80;10.88;;;0.70;99.90;;;;;;6148056;23;20039;-80
2022/12/20 09:41:44;;;;;;;32.65;10.13;;;0.70;99.90;;;;;;6192839;23;20025;-80
2022/12/20 09:54:33;;;;;;;27.70;9.05;;;1.00;99.90;;;;;;6139581;23;20517;-79
2022/12/20 09:57:34;;;;;;;19.42;6.53;;;1.10;99.90;;;;;;6191621;22;20112;-80
2022/12/20 10:10:17;;;;;;;21.15;7.18;;;1.30;99.90;;;;;;6189870;23;20353;-80
2022/12/20 10:13:19;;;;;;;14.50;5.75;;;1.30;99.90;;;;;;6150055;23;21277;31
2022/12/20 10:16:53;;;;;;;40.15;10.82;;;1.30;99.90;;;;;;6103670;23;20021;31
2022/12/20 10:20:19;;;;;;;25.13;8.98;;;1.20;99.90;;;;;;6121612;23;20014;-79
2022/12/20 10:42:48;;;;;;;21.83;8.10;;;1.80;99.90;;;;;;6146297;23;21077;31
2022/12/20 10:59:08;;;;;;;25.98;8.35;;;2.00;99.90;;;;;;6164586;23;20024;-80
2022/12/20 11:37:13;;;;;;;28.67;9.80;;;2.60;96.10;;;;;;6157764;23;20025;-79
2022/12/20 11:42:33;;;;;;;39.85;13.30;;;2.60;96.70;;;;;;6139054;23;20045;-80
2022/12/20 11:49:07;;;;;;;25.20;11.07;;;2.60;97.00;;;;;;6166199;23;20032;31
2022/12/20 11:52:05;;;;;;;31.02;10.13;;;2.70;97.10;;;;;;6111458;23;20485;-80
2022/12/20 11:54:40;;;;;;;40.60;13.88;;;2.70;96.40;;;;;;6113280;23;20029;-80
2022/12/20 11:57:28;;;;;;;33.55;11.45;;;2.80;96.20;;;;;;6093643;23;20043;-80
2022/12/20 12:00:02;;;;;;;45.50;14.70;;;2.80;96.40;;;;;;6112142;23;20042;-80
2022/12/20 12:03:02;;;;;;;37.80;11.70;;;2.70;96.20;;;;;;6050936;23;20457;-80
2022/12/20 12:05:36;;;;;;;40.85;13.45;;;2.70;96.00;;;;;;6063314;23;20043;-80
2022/12/20 12:08:18;;;;;;;28.48;9.50;;;2.70;96.30;;;;;;6042254;23;20083;-80
2022/12/20 12:11:05;;;;;;;25.58;9.25;;;2.70;96.10;;;;;;6044929;23;20024;-80
2022/12/20 12:14:03;;;;;;;33.40;10.15;;;2.70;96.10;;;;;;6067296;23;20023;-80
2022/12/20 12:16:45;;;;;;;36.90;12.00;;;2.70;96.30;;;;;;6043440;23;20355;-79
2022/12/20 12:19:13;;;;;;;24.48;10.27;;;2.70;96.00;;;;;;6015498;23;20115;-79
2022/12/20 12:21:47;;;;;;;27.58;8.50;;;2.60;96.10;;;;;;6034731;23;20524;-79
2022/12/20 12:24:32;;;;;;;24.88;8.07;;;2.60;96.70;;;;;;5948036;23;20052;-80
2022/12/20 12:27:00;;;;;;;24.80;8.80;;;2.50;96.80;;;;;;5911890;24;20030;-80
2022/12/20 12:29:29;;;;;;;30.73;11.30;;;2.50;97.20;;;;;;5862565;24;20629;-80
2022/12/20 12:32:09;;;;;;;42.75;15.27;;;2.60;97.20;;;;;;5885351;24;20121;-80
2022/12/20 14:12:59;;;;;;;29.10;9.10;;;1.80;99.60;;;;;;6189113;22;1573259;-78
2022/12/20 14:21:46;;;;;;;39.60;15.10;;;1.70;99.90;;;;;;6265408;22;20035;-77
2022/12/20 14:24:19;;;;;;;35.72;13.20;;;1.70;99.90;;;;;;6195308;23;20028;-79
2022/12/20 14:26:55;;;;;;;28.45;9.75;;;1.60;99.90;;;;;;6259797;23;20028;-78
2022/12/20 14:29:28;;;;;;;36.55;11.27;;;1.60;99.90;;;;;;6235218;23;20070;-77
2022/12/20 14:31:57;;;;;;;34.40;11.13;;;1.60;99.90;;;;;;6262326;23;20050;-79
2022/12/20 14:34:31;;;;;;;32.30;11.55;;;1.60;99.90;;;;;;6263183;23;20047;-79
2022/12/20 14:37:43;;;;;;;28.70;9.77;;;1.50;99.90;;;;;;6260361;23;20075;-78
2022/12/20 14:40:11;;;;;;;30.13;11.68;;;1.50;99.90;;;;;;6144535;23;20021;-79
2022/12/20 14:46:17;;;;;;;77.68;26.10;;;1.50;99.90;;;;;;6238546;22;20050;-77
2022/12/20 14:54:58;;;;;;;36.20;13.68;;;1.30;99.90;;;;;;6215095;22;20051;31
2022/12/20 14:57:36;;;;;;;41.17;16.10;;;1.30;99.90;;;;;;6178477;23;20045;-80
2022/12/20 15:08:48;;;;;;;42.00;16.30;;;1.20;99.90;;;;;;6180415;23;20005;-78
2022/12/20 15:11:21;;;;;;;46.20;19.52;;;1.10;99.90;;;;;;6151518;23;20005;-79
2022/12/20 15:16:36;;;;;;;39.30;15.10;;;1.00;99.90;;;;;;6173193;23;19916;-79
2022/12/20 15:19:08;;;;;;;48.50;19.05;;;1.00;99.90;;;;;;6197564;23;20078;-79
2022/12/20 15:21:41;;;;;;;40.42;17.83;;;1.00;99.90;;;;;;6155199;23;20529;-80
2022/12/20 15:24:24;;;;;;;51.40;19.23;;;1.00;99.90;;;;;;6176754;23;20020;-80
2022/12/20 15:26:52;;;;;;;48.75;19.15;;;1.00;99.90;;;;;;6150787;23;20076;-78
2022/12/20 15:29:25;;;;;;;37.72;15.82;;;1.00;99.90;;;;;;6173048;23;20017;-79
2022/12/20 15:32:08;;;;;;;;;;;0.90;99.90;;;;;;6178616;23;20004;-79
2022/12/20 15:34:37;;;;;;;35.50;14.47;;;0.90;99.90;;;;;;6175913;23;19999;-79
2022/12/20 15:37:05;;;;;;;43.15;17.38;;;0.90;99.90;;;;;;6146839;23;20290;-79
2022/12/20 15:42:34;;;;;;;38.95;15.55;;;0.90;99.90;;;;;;6183165;23;20037;-79
2022/12/20 16:48:48;;;;;;;45.58;17.10;;;0.60;99.90;;;;;;6212931;22;20317;31
2022/12/20 16:55:03;;;;;;;39.80;17.10;;;0.60;99.90;;;;;;6183272;23;20142;31
2022/12/20 16:57:34;;;;;;;39.22;16.23;;;0.60;99.90;;;;;;6184628;23;20063;-79
